Hlavní strana
METAR-TAF:

METAR-TAF

Letiště :

Brandon, Manitoba, Kanada

zeměpisná šířka: 49-55N, zeměpisná délka: 099-57W, výška: 409 m

Aktuální stav počasí

Zpráva byla vytvořena před 49 minutami, v 08:00 UTC
Severoseverovýchodní vítr 7 kt
Teplota 4°C
Vlhkost vzduchu 75%
Tlak 1013 hPa
Viditelnost: 24.1 km
Skoro jasno ve výšce 8500 ft

METAR: CYBR 210800Z 03007KT 15SM FEW085 04/M00 A2990 RMK AC2 SLP137

Čas: 03:49 (08:49 UTC)

Předpověď počasí

Zpráva byla vytvořena před 3 hodinami a 9 minutami, v 05:40 UTC
Předpověď platná od 21 v 06 UTC do 21 v 18 UTC
Východoseverovýchodní vítr 6 kt
Viditelnost: 10 km
Polojasno ve výšce 10000 ft
Polojasno ve výšce 24000 ft
Změna
od 21 v 07 UTC do 21 v 09 UTC
vítr z různých směrů 3 kt
Od 21 v 1700 UTC
Východní vítr 8 kt
Viditelnost: 10 km
Polojasno ve výšce 7000 ft

TAF: CYBR 210540Z 2106/2118 06006KT P6SM SCT100 SCT240 BECMG 2107/2109 VRB03KT FM211700 08008KT P6SM SCT070 RMK NXT FCST BY 211200Z

Stav a předpovědi počasí z více než 4 000 letišť (zprávy METAR a TAF).

Červené a žluté tečky na mapě představují dostupné meteorologické stanice.

Když kurzor umístíte na tečku, zobrazí se název stanice.

Pak kliknutím zobrazíte stav a předpověď počasí.

Chcete-li změnit mapu, kliknutím na zelené tlačítko se znaménkem +mapu přiblížíte, kliknutím na zelené tlačítko se znaménkem – mapu oddálíte a kliknutím na zelené šipky přejdete na sousední mapy.


METAR-TAF: